createdAt,value
2022-08-24T00:03:48.622Z,11.04
2022-08-24T00:18:48.646Z,10.11
2022-08-24T00:33:49.148Z,10.7
2022-08-24T00:48:48.923Z,10.26
2022-08-24T01:03:49.439Z,11.48
2022-08-24T01:18:49.230Z,10.19
2022-08-24T01:33:49.017Z,10.26
2022-08-24T01:48:49.260Z,10.83
2022-08-24T02:03:51.849Z,10.96
2022-08-24T02:18:49.320Z,10.25
2022-08-24T02:33:48.797Z,10.74
2022-08-24T02:48:56.558Z,11.26
2022-08-24T03:03:48.802Z,10.09
2022-08-24T03:18:48.828Z,10.97
2022-08-24T03:33:49.237Z,10.89
2022-08-24T03:48:49.203Z,9.9
2022-08-24T04:03:48.521Z,9.83
2022-08-24T04:18:48.645Z,11.19
2022-08-24T04:33:48.755Z,10.6
2022-08-24T04:48:48.774Z,9.7
2022-08-24T05:03:49.250Z,12.49
2022-08-24T05:18:48.677Z,11.94
2022-08-24T05:33:48.931Z,11.94
2022-08-24T05:48:49.878Z,11.03
2022-08-24T06:03:48.698Z,11.18
2022-08-24T06:18:48.603Z,10.74
2022-08-24T06:33:48.860Z,10.46
2022-08-24T06:48:48.878Z,9.8
2022-08-24T07:03:48.727Z,8.48
2022-08-24T07:18:50.099Z,9.01
2022-08-24T07:33:48.489Z,7.92
2022-08-24T07:48:52.894Z,8.49
2022-08-24T08:03:49.982Z,7.43
2022-08-24T08:18:56.357Z,7.95
2022-08-24T08:33:48.486Z,8.61
2022-08-24T08:48:49.195Z,7.78
2022-08-24T09:03:48.601Z,7.94
2022-08-24T09:18:49.298Z,8.32
2022-08-24T09:33:49.019Z,9.01
2022-08-24T09:48:48.922Z,8.76
2022-08-24T10:03:48.657Z,6.68
2022-08-24T10:18:49.231Z,5.29
2022-08-24T10:33:48.857Z,5.09
2022-08-24T10:48:48.398Z,5.51
2022-08-24T11:03:48.936Z,7.06
2022-08-24T11:18:48.730Z,5.6
2022-08-24T11:33:49.110Z,5.14
2022-08-24T11:48:48.496Z,5.94
2022-08-24T12:03:52.417Z,5.6
2022-08-24T12:18:48.533Z,5.07
2022-08-24T12:33:48.964Z,5.84
2022-08-24T12:48:48.543Z,5.34
2022-08-24T13:03:48.885Z,5.96
2022-08-24T13:18:48.445Z,5.63
2022-08-24T13:33:48.879Z,6.09
2022-08-24T13:48:48.430Z,6.63
2022-08-24T14:03:48.940Z,5.52
2022-08-24T14:18:48.614Z,5.34
2022-08-24T14:33:48.618Z,5.01
2022-08-24T14:48:49.970Z,5.15
2022-08-24T15:03:49.141Z,5.27
2022-08-24T15:18:48.718Z,4.57
2022-08-24T15:33:48.962Z,4.55
2022-08-24T15:48:48.858Z,5.3
2022-08-24T16:03:48.842Z,5.09
2022-08-24T16:18:48.860Z,4.86
2022-08-24T16:33:48.997Z,5.23
2022-08-24T16:48:49.059Z,5.29
2022-08-24T17:03:49.237Z,6.57
2022-08-24T17:18:48.642Z,8.96
2022-08-24T17:33:49.135Z,6.98
2022-08-24T17:48:49.050Z,6.81
2022-08-24T18:03:49.070Z,7.09
2022-08-24T18:18:49.014Z,8.18
2022-08-24T18:33:48.973Z,7.52
2022-08-24T18:48:49.051Z,7.95
2022-08-24T19:03:48.761Z,7.61
2022-08-24T19:18:48.418Z,8.11
2022-08-24T19:33:49.675Z,7.5
2022-08-24T19:48:48.732Z,8.07
2022-08-24T20:03:48.900Z,8.52
2022-08-24T20:18:48.429Z,10.8
2022-08-24T20:33:49.249Z,17.96
2022-08-24T20:48:54.282Z,14.03
2022-08-24T21:03:48.492Z,14.77
2022-08-24T21:18:48.751Z,17.21
2022-08-24T21:33:49.032Z,19.82
2022-08-24T21:48:49.014Z,15.29
2022-08-24T22:03:48.903Z,13.65
2022-08-24T22:18:49.007Z,11.15
2022-08-24T22:33:49.282Z,11.69
2022-08-24T22:48:48.786Z,10.4
2022-08-24T23:03:49.764Z,11.2
2022-08-24T23:18:48.615Z,10.62
2022-08-24T23:33:48.471Z,10.11
2022-08-24T23:48:51.002Z,10.59
